createdAt,value
2022-10-15T00:00:51.747Z,99122.16
2022-10-15T00:03:18.373Z,99131.47
2022-10-15T00:05:45.065Z,99126.16
2022-10-15T00:08:12.926Z,99120.69
2022-10-15T00:10:39.696Z,99123.22
2022-10-15T00:13:06.608Z,99120.88
2022-10-15T00:15:35.738Z,99124.63
2022-10-15T00:18:02.381Z,99128.81
2022-10-15T00:20:29.150Z,99130.47
2022-10-15T00:22:55.822Z,99133.44
2022-10-15T00:25:22.840Z,99137.06
2022-10-15T00:27:49.440Z,99134.25
2022-10-15T00:30:18.044Z,99126.44
2022-10-15T00:32:44.689Z,99124.94
2022-10-15T00:35:11.477Z,99120.09
2022-10-15T00:37:38.445Z,99118.97
2022-10-15T00:40:05.746Z,99111.03
2022-10-15T00:42:33.087Z,99115.38
2022-10-15T00:45:00.303Z,99116.88
2022-10-15T00:47:34.537Z,99101.81
2022-10-15T00:50:04.942Z,99100.16
2022-10-15T00:52:46.132Z,99095.53
2022-10-15T00:55:24.939Z,99097.50
2022-10-15T00:57:52.615Z,99094.53
2022-10-15T01:00:20.210Z,99090.34
2022-10-15T01:02:47.296Z,99089.06
2022-10-15T01:05:16.748Z,99079.28
2022-10-15T01:07:43.557Z,99082.19
2022-10-15T01:10:11.542Z,99075.88
2022-10-15T01:12:57.294Z,99073.53
2022-10-15T01:15:25.457Z,99072.16
2022-10-15T01:18:21.541Z,99075.13
2022-10-15T01:21:04.084Z,99062.59
2022-10-15T01:23:55.863Z,99056.06
2022-10-15T01:26:44.393Z,99044.97
2022-10-15T01:29:14.471Z,99043.13
2022-10-15T01:31:58.138Z,99036.16
2022-10-15T01:34:51.149Z,99028.06
2022-10-15T01:37:32.257Z,99021.25
2022-10-15T01:40:11.382Z,99012.72
2022-10-15T01:42:57.402Z,99014.22
2022-10-15T01:45:43.220Z,98995.06
2022-10-15T01:48:21.101Z,99001.78
2022-10-15T01:50:53.072Z,98987.31
2022-10-15T01:53:26.686Z,98984.97
2022-10-15T01:55:58.615Z,98981.09
2022-10-15T01:58:25.917Z,98976.63
2022-10-15T02:00:55.962Z,98974.97
2022-10-15T02:03:22.881Z,98970.81
2022-10-15T02:06:25.639Z,98973.28
2022-10-15T02:09:14.187Z,98968.84
2022-10-15T02:11:50.056Z,98960.91
2022-10-15T02:14:34.867Z,98949.75
2022-10-15T02:17:11.821Z,98952.09
2022-10-15T02:19:38.501Z,98938.19
2022-10-15T02:22:28.406Z,98940.91
2022-10-15T02:25:18.653Z,98931.16
2022-10-15T02:27:49.290Z,98924.50
2022-10-15T02:30:17.685Z,98916.38
2022-10-15T02:32:49.108Z,98913.59
2022-10-15T02:35:22.814Z,98904.13
2022-10-15T02:37:52.894Z,98899.75
2022-10-15T02:40:27.306Z,98880.75
2022-10-15T02:42:54.495Z,98872.50
2022-10-15T02:45:21.459Z,98866.56
2022-10-15T02:47:48.151Z,98872.19
2022-10-15T02:50:14.932Z,98856.31
2022-10-15T02:52:41.961Z,98852.50
2022-10-15T02:55:09.174Z,98851.00
2022-10-15T02:57:36.044Z,98835.78
2022-10-15T03:00:05.041Z,98827.47
2022-10-15T03:02:31.784Z,98818.16
2022-10-15T03:04:58.733Z,98802.56
2022-10-15T03:07:25.921Z,98788.63
2022-10-15T03:09:52.798Z,98789.63
2022-10-15T03:12:23.248Z,98779.34
2022-10-15T03:14:51.698Z,98781.31
2022-10-15T03:17:19.240Z,98777.38
2022-10-15T03:19:46.057Z,98767.25
2022-10-15T03:22:12.702Z,98757.84
2022-10-15T03:24:46.974Z,98746.78
2022-10-15T03:27:16.925Z,98752.91
2022-10-15T03:29:43.723Z,98750.00
2022-10-15T03:32:11.305Z,98749.91
2022-10-15T03:34:38.209Z,98741.63
2022-10-15T03:37:05.069Z,98727.13
2022-10-15T03:39:31.816Z,98711.47
2022-10-15T03:42:02.297Z,98711.06
2022-10-15T03:44:37.640Z,98702.00
2022-10-15T03:47:09.709Z,98706.75
2022-10-15T03:49:44.016Z,98702.44
2022-10-15T03:52:11.159Z,98687.81
2022-10-15T03:54:38.797Z,98675.38
2022-10-15T03:57:05.675Z,98671.66
2022-10-15T03:59:37.277Z,98666.41
2022-10-15T04:02:04.041Z,98654.56
2022-10-15T04:04:32.272Z,98653.03
2022-10-15T04:06:59.413Z,98637.81
2022-10-15T04:09:26.616Z,98620.88
2022-10-15T04:12:03.226Z,98628.47
2022-10-15T04:14:30.039Z,98623.75
2022-10-15T04:16:59.141Z,98624.03
2022-10-15T04:19:28.105Z,98616.81
2022-10-15T04:22:03.307Z,98619.97
2022-10-15T04:24:35.397Z,98619.53
2022-10-15T04:27:02.287Z,98607.25
2022-10-15T04:29:29.026Z,98603.44
2022-10-15T04:32:15.165Z,98596.72
2022-10-15T04:34:42.864Z,98604.31
2022-10-15T04:37:10.189Z,98614.91
2022-10-15T04:39:37.468Z,98601.91
2022-10-15T04:42:04.493Z,98601.63
2022-10-15T04:44:33.512Z,98603.84
2022-10-15T04:47:01.446Z,98598.25
2022-10-15T04:49:42.393Z,98597.44
2022-10-15T04:52:25.264Z,98591.56
2022-10-15T04:54:55.916Z,98601.19
2022-10-15T04:57:22.993Z,98604.97
2022-10-15T04:59:53.879Z,98601.13
2022-10-15T05:02:33.170Z,98587.06
2022-10-15T05:05:18.274Z,98593.69
2022-10-15T05:07:51.076Z,98587.53
2022-10-15T05:10:18.133Z,98574.19
2022-10-15T05:12:45.964Z,98572.25
2022-10-15T05:15:13.180Z,98570.50
2022-10-15T05:17:40.092Z,98568.28
2022-10-15T05:20:08.323Z,98560.94
2022-10-15T05:22:35.393Z,98551.53
2022-10-15T05:25:03.421Z,98545.94
2022-10-15T05:30:16.872Z,98522.19
2022-10-15T05:32:54.125Z,98508.53
2022-10-15T05:35:22.360Z,98509.00
2022-10-15T05:37:54.710Z,98506.16
2022-10-15T05:40:22.635Z,98500.88
2022-10-15T05:43:01.850Z,98497.81
2022-10-15T05:45:28.545Z,98484.22
2022-10-15T05:47:58.375Z,98476.78
2022-10-15T05:50:25.444Z,98470.59
2022-10-15T05:52:58.100Z,98475.81
2022-10-15T05:55:46.221Z,98465.53
2022-10-15T05:58:12.979Z,98458.38
2022-10-15T06:00:39.830Z,98441.28
2022-10-15T06:03:06.536Z,98426.88
2022-10-15T06:05:33.434Z,98421.56
2022-10-15T06:08:00.122Z,98403.13
2022-10-15T06:10:28.474Z,98410.66
2022-10-15T06:12:55.562Z,98388.25
2022-10-15T06:15:22.254Z,98384.19
2022-10-15T06:17:56.472Z,98380.69
2022-10-15T06:20:23.606Z,98383.16
2022-10-15T06:22:50.277Z,98367.97
2022-10-15T06:25:17.012Z,98353.38
2022-10-15T06:27:43.656Z,98347.28
2022-10-15T06:30:10.648Z,98345.28
2022-10-15T06:32:37.383Z,98335.03
2022-10-15T06:35:04.470Z,98331.72
2022-10-15T06:37:33.415Z,98321.13
2022-10-15T06:40:00.119Z,98314.34
2022-10-15T06:42:26.855Z,98307.19
2022-10-15T06:44:55.382Z,98297.97
2022-10-15T06:47:22.430Z,98281.53
2022-10-15T06:49:50.112Z,98286.47
2022-10-15T06:52:16.808Z,98271.81
2022-10-15T06:54:43.646Z,98245.50
2022-10-15T06:57:10.959Z,98231.81
2022-10-15T06:59:40.477Z,98243.53
2022-10-15T07:02:10.574Z,98248.47
2022-10-15T07:04:37.303Z,98243.09
2022-10-15T07:07:04.095Z,98246.41
2022-10-15T07:09:30.921Z,98228.72
2022-10-15T07:11:57.580Z,98218.03
2022-10-15T07:14:24.656Z,98217.88
2022-10-15T07:16:51.341Z,98224.28
2022-10-15T07:19:18.300Z,98219.53
2022-10-15T07:21:46.785Z,98225.91
2022-10-15T07:24:13.837Z,98225.25
2022-10-15T07:26:40.486Z,98218.97
2022-10-15T07:29:07.183Z,98210.94
2022-10-15T07:31:34.522Z,98217.09
2022-10-15T07:34:01.249Z,98205.78
2022-10-15T07:36:27.961Z,98199.25
2022-10-15T07:38:54.708Z,98191.91
2022-10-15T07:41:21.431Z,98194.38
2022-10-15T07:43:48.154Z,98186.19
2022-10-15T07:46:14.993Z,98189.31
2022-10-15T07:48:41.645Z,98177.06
2022-10-15T07:51:10.324Z,98173.59
2022-10-15T07:53:37.356Z,98150.41
2022-10-15T07:56:08.011Z,98149.59
2022-10-15T07:58:38.003Z,98131.25
2022-10-15T08:01:06.795Z,98125.72
2022-10-15T08:03:34.363Z,98130.47
2022-10-15T08:06:05.457Z,98119.63
2022-10-15T08:08:33.366Z,98116.75
2022-10-15T08:11:15.346Z,98118.44
2022-10-15T08:13:43.273Z,98107.13
2022-10-15T08:16:11.610Z,98104.84
2022-10-15T08:18:38.514Z,98109.78
2022-10-15T08:21:06.884Z,98099.50
2022-10-15T08:23:34.287Z,98072.78
2022-10-15T08:26:01.972Z,98072.41
2022-10-15T08:28:29.112Z,98078.31
2022-10-15T08:31:02.620Z,98077.31
2022-10-15T08:33:33.292Z,98069.69
2022-10-15T08:36:01.557Z,98055.94
2022-10-15T08:38:30.807Z,98055.53
2022-10-15T08:41:00.180Z,98061.69
2022-10-15T08:43:41.215Z,98046.91
2022-10-15T08:46:29.672Z,98052.03
2022-10-15T08:48:59.900Z,98045.66
2022-10-15T08:51:31.688Z,98045.22
2022-10-15T08:54:02.615Z,98046.66
2022-10-15T08:56:39.593Z,98041.53
2022-10-15T08:59:28.890Z,98046.25
2022-10-15T09:02:13.551Z,98041.91
2022-10-15T09:05:03.469Z,98042.72
2022-10-15T09:07:43.502Z,98037.16
2022-10-15T09:10:16.748Z,98042.28
2022-10-15T09:12:58.177Z,98030.34
2022-10-15T09:15:27.952Z,98019.47
2022-10-15T09:17:55.582Z,98014.75
2022-10-15T09:20:31.174Z,98015.75
2022-10-15T09:22:58.027Z,98013.91
2022-10-15T09:25:31.986Z,98005.31
2022-10-15T09:28:10.469Z,98000.19
2022-10-15T09:30:51.623Z,98000.19
2022-10-15T09:33:36.798Z,97984.63
2022-10-15T09:36:09.903Z,97992.22
2022-10-15T09:38:53.893Z,97985.06
2022-10-15T09:41:29.520Z,97975.19
2022-10-15T09:43:59.554Z,97977.88
2022-10-15T09:46:29.890Z,97988.13
2022-10-15T09:49:36.232Z,97967.56
2022-10-15T09:52:13.339Z,97975.38
2022-10-15T09:55:04.566Z,97963.91
2022-10-15T09:57:33.664Z,97957.34
2022-10-15T10:00:02.431Z,97947.28
2022-10-15T10:02:39.157Z,97959.81
2022-10-15T10:05:31.986Z,97949.94
2022-10-15T10:08:24.714Z,97947.09
2022-10-15T10:10:56.952Z,97950.75
2022-10-15T10:13:38.138Z,97928.41
2022-10-15T10:16:13.312Z,97924.06
2022-10-15T10:18:40.149Z,97936.00
2022-10-15T10:21:23.098Z,97944.41
2022-10-15T10:23:49.815Z,97952.19
2022-10-15T10:26:16.482Z,97946.25
2022-10-15T10:28:49.123Z,97958.56
2022-10-15T10:31:15.844Z,97952.84
2022-10-15T10:33:47.704Z,97954.47
2022-10-15T10:36:30.765Z,97949.56
2022-10-15T10:39:05.964Z,97964.50
2022-10-15T10:41:51.521Z,97963.91
2022-10-15T10:44:22.388Z,97971.66
2022-10-15T10:47:03.033Z,97955.91
2022-10-15T10:49:34.961Z,97972.72
2022-10-15T10:52:02.358Z,97980.53
2022-10-15T10:54:30.858Z,97986.31
2022-10-15T10:57:00.698Z,97973.78
2022-10-15T10:59:33.483Z,97987.31
2022-10-15T11:02:00.488Z,97990.50
2022-10-15T11:04:31.616Z,97971.44
2022-10-15T11:07:17.584Z,97983.38
2022-10-15T11:10:07.303Z,97979.72
2022-10-15T11:12:43.012Z,97992.50
2022-10-15T11:15:25.046Z,98013.03
2022-10-15T11:18:19.301Z,98032.38
2022-10-15T11:21:00.725Z,98028.34
2022-10-15T11:23:32.712Z,98043.56
2022-10-15T11:26:11.071Z,98055.91
2022-10-15T11:28:56.185Z,98041.28
2022-10-15T11:31:37.083Z,98043.56
2022-10-15T11:34:44.563Z,98036.84
2022-10-15T11:37:15.430Z,98041.75
2022-10-15T11:40:06.979Z,98048.97
2022-10-15T11:42:58.875Z,98039.06
2022-10-15T11:46:07.150Z,98042.97
2022-10-15T11:48:52.062Z,98048.94
2022-10-15T11:51:49.917Z,98046.81
2022-10-15T11:54:30.655Z,98047.94
2022-10-15T11:57:00.370Z,98057.88
2022-10-15T11:59:37.834Z,98057.06
2022-10-15T12:02:13.611Z,98053.78
2022-10-15T12:04:58.710Z,98054.25
2022-10-15T12:07:30.942Z,98044.28
2022-10-15T12:10:14.932Z,98047.44
2022-10-15T12:12:52.918Z,98048.41
2022-10-15T12:15:44.885Z,98047.25
2022-10-15T12:18:20.476Z,98037.34
2022-10-15T12:20:50.149Z,98045.97
2022-10-15T12:23:40.682Z,98049.69
2022-10-15T12:26:28.146Z,98049.75
2022-10-15T12:29:00.875Z,98049.13
2022-10-15T12:31:50.204Z,98054.47
2022-10-15T12:34:31.183Z,98059.59
2022-10-15T12:37:15.734Z,98073.38
2022-10-15T12:39:52.109Z,98059.97
2022-10-15T12:42:25.935Z,98076.47
2022-10-15T12:44:53.017Z,98079.75
2022-10-15T12:47:48.873Z,98083.44
2022-10-15T12:50:19.894Z,98078.75
2022-10-15T12:53:14.695Z,98079.97
2022-10-15T12:55:42.021Z,98074.63
2022-10-15T12:58:35.214Z,98079.13
2022-10-15T13:01:07.687Z,98069.44
2022-10-15T13:03:51.219Z,98071.94
2022-10-15T13:06:20.731Z,98069.44
2022-10-15T13:08:56.443Z,98069.06
2022-10-15T13:11:33.298Z,98087.56
2022-10-15T13:14:14.662Z,98086.34
2022-10-15T13:16:45.763Z,98073.19
2022-10-15T13:19:25.188Z,98082.03
2022-10-15T13:21:58.572Z,98082.84
2022-10-15T13:24:31.030Z,98078.69
2022-10-15T13:27:00.615Z,98079.75
2022-10-15T13:29:27.871Z,98089.63
2022-10-15T13:31:57.207Z,98098.25
2022-10-15T13:34:33.123Z,98096.63
2022-10-15T13:37:02.430Z,98092.28
2022-10-15T13:42:18.221Z,98095.50
2022-10-15T13:45:01.562Z,98101.88
2022-10-15T13:47:35.364Z,98098.72
2022-10-15T13:50:19.590Z,98103.16
2022-10-15T13:53:04.994Z,98092.22
2022-10-15T13:55:36.411Z,98104.75
2022-10-15T13:58:05.809Z,98103.16
2022-10-15T14:00:36.422Z,98106.84
2022-10-15T14:03:24.205Z,98107.25
2022-10-15T14:05:53.161Z,98099.47
2022-10-15T14:08:21.874Z,98115.50
2022-10-15T14:10:50.488Z,98109.78
2022-10-15T14:13:17.258Z,98104.44
2022-10-15T14:15:49.051Z,98124.59
2022-10-15T14:18:27.139Z,98123.16
2022-10-15T14:20:54.688Z,98122.53
2022-10-15T14:23:24.309Z,98112.66
2022-10-15T14:26:02.083Z,98112.00
2022-10-15T14:28:32.906Z,98106.47
2022-10-15T14:31:01.070Z,98108.09
2022-10-15T14:33:41.917Z,98110.56
2022-10-15T14:36:23.002Z,98105.66
2022-10-15T14:38:52.003Z,98100.31
2022-10-15T14:41:26.586Z,98098.66
2022-10-15T14:44:12.167Z,98094.34
2022-10-15T14:46:48.926Z,98086.75
2022-10-15T14:49:36.350Z,98094.97
2022-10-15T14:52:16.465Z,98097.88
2022-10-15T14:55:09.311Z,98100.16
2022-10-15T14:57:41.774Z,98093.53
2022-10-15T15:00:33.571Z,98094.59
2022-10-15T15:03:04.452Z,98096.44
2022-10-15T15:05:43.368Z,98095.81
2022-10-15T15:08:10.046Z,98101.16
2022-10-15T15:10:36.808Z,98101.56
2022-10-15T15:13:03.830Z,98099.91
2022-10-15T15:15:30.590Z,98104.03
2022-10-15T15:17:57.359Z,98103.41
2022-10-15T15:20:25.884Z,98106.50
2022-10-15T15:22:54.714Z,98108.94
2022-10-15T15:25:28.442Z,98101.16
2022-10-15T15:27:55.197Z,98104.22
2022-10-15T15:30:25.083Z,98102.97
2022-10-15T15:32:52.147Z,98099.31
2022-10-15T15:35:38.077Z,98097.88
2022-10-15T15:38:08.187Z,98090.06
2022-10-15T15:40:35.901Z,98088.00
2022-10-15T15:43:03.332Z,98092.53
2022-10-15T15:45:30.109Z,98090.66
2022-10-15T15:47:58.879Z,98094.34
2022-10-15T15:50:25.901Z,98087.19
2022-10-15T15:52:52.608Z,98097.03
2022-10-15T15:55:19.258Z,98102.78
2022-10-15T15:57:46.544Z,98102.16
2022-10-15T16:00:14.201Z,98095.41
2022-10-15T16:02:41.089Z,98092.53
2022-10-15T16:05:09.337Z,98092.53
2022-10-15T16:07:36.207Z,98092.91
2022-10-15T16:10:06.063Z,98093.34
2022-10-15T16:12:34.178Z,98094.78
2022-10-15T16:15:01.335Z,98083.47
2022-10-15T16:17:28.301Z,98095.00
2022-10-15T16:19:55.154Z,98096.44
2022-10-15T16:22:21.951Z,98095.00
2022-10-15T16:24:48.654Z,98102.41
2022-10-15T16:27:15.355Z,98113.28
2022-10-15T16:29:42.078Z,98109.19
2022-10-15T16:32:08.788Z,98115.75
2022-10-15T16:34:35.539Z,98121.28
2022-10-15T16:37:02.296Z,98110.81
2022-10-15T16:39:28.958Z,98104.41
2022-10-15T16:41:56.166Z,98103.13
2022-10-15T16:44:22.897Z,98082.19
2022-10-15T16:46:49.713Z,98098.56
2022-10-15T16:49:16.403Z,98091.63
2022-10-15T16:51:43.844Z,98098.56
2022-10-15T16:54:14.070Z,98099.78
2022-10-15T16:56:41.751Z,98097.03
2022-10-15T16:59:08.591Z,98107.06
2022-10-15T17:01:35.998Z,98090.03
2022-10-15T17:04:02.752Z,98082.22
2022-10-15T17:06:31.221Z,98088.56
2022-10-15T17:08:59.980Z,98082.81
2022-10-15T17:11:29.271Z,98070.28
2022-10-15T17:13:58.938Z,98077.28
2022-10-15T17:16:26.838Z,98077.06
2022-10-15T17:18:54.778Z,98091.28
2022-10-15T17:21:24.110Z,98088.44
2022-10-15T17:23:52.132Z,98083.72
2022-10-15T17:26:21.691Z,98089.47
2022-10-15T17:28:49.595Z,98092.56
2022-10-15T17:31:19.113Z,98097.03
2022-10-15T17:33:47.640Z,98116.44
2022-10-15T17:36:19.437Z,98093.81
2022-10-15T17:38:46.688Z,98101.34
2022-10-15T17:41:19.542Z,98107.72
2022-10-15T17:43:48.059Z,98095.31
2022-10-15T17:46:20.497Z,98098.47
2022-10-15T17:48:49.351Z,98088.38
2022-10-15T17:51:19.116Z,98094.69
2022-10-15T17:53:46.906Z,98095.72
2022-10-15T17:56:22.907Z,98088.72
2022-10-15T17:58:50.331Z,98083.84
2022-10-15T18:01:33.701Z,98072.78
2022-10-15T18:04:11.885Z,98074.44
2022-10-15T18:06:38.655Z,98083.69
2022-10-15T18:09:05.302Z,98085.94
2022-10-15T18:11:37.282Z,98096.00
2022-10-15T18:14:04.171Z,98097.06
2022-10-15T18:16:34.029Z,98090.34
2022-10-15T18:19:00.767Z,98076.59
2022-10-15T18:21:28.532Z,98068.41
2022-10-15T18:23:58.843Z,98070.44
2022-10-15T18:26:25.554Z,98056.28
2022-10-15T18:28:54.218Z,98071.88
2022-10-15T18:31:22.433Z,98079.06
2022-10-15T18:33:52.204Z,98077.03
2022-10-15T18:36:23.248Z,98075.19
2022-10-15T18:38:50.847Z,98074.59
2022-10-15T18:41:28.970Z,98079.16
2022-10-15T18:44:00.916Z,98077.53
2022-10-15T18:46:33.912Z,98081.19
2022-10-15T18:49:02.071Z,98077.53
2022-10-15T18:51:31.011Z,98080.81
2022-10-15T18:53:59.951Z,98086.53
2022-10-15T18:56:27.360Z,98079.56
2022-10-15T18:58:55.550Z,98071.50
2022-10-15T19:01:31.411Z,98062.69
2022-10-15T19:04:03.056Z,98062.25
2022-10-15T19:06:40.311Z,98059.16
2022-10-15T19:09:09.904Z,98068.19
2022-10-15T19:11:37.280Z,98067.56
2022-10-15T19:14:06.160Z,98063.03
2022-10-15T19:16:34.292Z,98066.53
2022-10-15T19:19:04.639Z,98064.72
2022-10-15T19:21:32.439Z,98058.56
2022-10-15T19:23:59.844Z,98057.34
2022-10-15T19:26:27.778Z,98054.47
2022-10-15T19:28:56.974Z,98060.91
2022-10-15T19:31:29.142Z,98053.72
2022-10-15T19:34:00.446Z,98055.09
2022-10-15T19:36:37.018Z,98049.34
2022-10-15T19:39:09.584Z,98050.38
2022-10-15T19:41:38.126Z,98050.38
2022-10-15T19:44:07.877Z,98053.84
2022-10-15T19:46:38.184Z,98043.41
2022-10-15T19:49:06.550Z,98055.94
2022-10-15T19:51:34.258Z,98046.09
2022-10-15T19:54:01.106Z,98047.38
2022-10-15T19:56:31.267Z,98043.84
2022-10-15T19:59:00.635Z,98040.56
2022-10-15T20:01:28.295Z,98038.53
2022-10-15T20:03:58.232Z,98038.13
2022-10-15T20:06:27.206Z,98039.22
2022-10-15T20:08:54.024Z,98037.00
2022-10-15T20:11:21.110Z,98038.44
2022-10-15T20:13:47.903Z,98029.63
2022-10-15T20:16:15.903Z,98035.78
2022-10-15T20:18:44.136Z,98043.59
2022-10-15T20:21:14.185Z,98029.22
2022-10-15T20:23:42.466Z,98036.41
2022-10-15T20:26:13.136Z,98038.25
2022-10-15T20:28:41.939Z,98040.75
2022-10-15T20:31:11.835Z,98035.41
2022-10-15T20:33:41.107Z,98036.03
2022-10-15T20:36:12.794Z,98033.75
2022-10-15T20:38:41.659Z,98030.06
2022-10-15T20:41:11.037Z,98030.88
2022-10-15T20:43:38.061Z,98039.09
2022-10-15T20:46:12.631Z,98048.31
2022-10-15T20:48:41.596Z,98036.63
2022-10-15T20:51:10.131Z,98034.59
2022-10-15T20:53:37.674Z,98027.38
2022-10-15T20:56:04.723Z,98030.06
2022-10-15T20:58:31.838Z,98030.88
2022-10-15T21:00:59.407Z,98028.00
2022-10-15T21:03:26.714Z,98029.03
2022-10-15T21:05:54.003Z,98031.50
2022-10-15T21:08:20.825Z,98037.44
2022-10-15T21:10:47.906Z,98028.00
2022-10-15T21:13:14.557Z,98026.38
2022-10-15T21:15:41.424Z,98031.28
2022-10-15T21:18:08.142Z,98031.69
2022-10-15T21:20:34.986Z,98027.81
2022-10-15T21:23:01.680Z,98024.28
2022-10-15T21:25:28.394Z,98032.13
2022-10-15T21:27:55.148Z,98024.28
2022-10-15T21:30:21.845Z,98023.06
2022-10-15T21:32:48.598Z,98019.16
2022-10-15T21:35:15.386Z,98022.25
2022-10-15T21:37:42.051Z,98019.38
2022-10-15T21:40:09.536Z,98013.19
2022-10-15T21:42:36.224Z,98022.44
2022-10-15T21:45:03.134Z,98022.44
2022-10-15T21:47:33.252Z,98026.78
2022-10-15T21:49:59.989Z,98029.22
2022-10-15T21:52:26.647Z,98025.53
2022-10-15T21:54:54.262Z,98023.47
2022-10-15T21:57:20.915Z,98018.09
2022-10-15T21:59:47.681Z,98014.59
2022-10-15T22:04:48.936Z,98016.47
2022-10-15T22:07:15.615Z,98013.38
2022-10-15T22:09:47.594Z,98008.66
2022-10-15T22:12:15.624Z,98004.94
2022-10-15T22:14:44.445Z,97999.59
2022-10-15T22:17:11.071Z,97998.97
2022-10-15T22:19:37.796Z,97991.59
2022-10-15T22:22:04.412Z,97999.38
2022-10-15T22:24:31.281Z,97996.53
2022-10-15T22:27:00.439Z,97991.19
2022-10-15T22:29:34.412Z,97996.31
2022-10-15T22:32:02.463Z,97995.09
2022-10-15T22:34:31.493Z,97994.06
2022-10-15T22:36:58.312Z,97985.63
2022-10-15T22:39:25.143Z,97976.00
2022-10-15T22:41:51.820Z,97981.94
2022-10-15T22:44:20.718Z,97981.72
2022-10-15T22:46:49.546Z,97994.66
2022-10-15T22:49:19.707Z,97993.44
2022-10-15T22:51:47.811Z,97988.91
2022-10-15T22:54:15.709Z,97975.75
2022-10-15T22:56:42.853Z,97975.75
2022-10-15T23:01:42.287Z,97982.09
2022-10-15T23:04:11.858Z,97988.03
2022-10-15T23:06:38.817Z,97980.59
2022-10-15T23:09:06.906Z,97979.97
2022-10-15T23:11:37.705Z,97985.91
2022-10-15T23:14:13.538Z,97979.34
2022-10-15T23:16:44.320Z,97981.78
2022-10-15T23:19:14.826Z,97975.66
2022-10-15T23:21:47.111Z,97970.31
2022-10-15T23:24:14.961Z,97976.28
2022-10-15T23:26:41.962Z,97967.66
2022-10-15T23:29:13.188Z,97973.19
2022-10-15T23:31:39.915Z,97963.34
2022-10-15T23:34:07.238Z,97953.91
2022-10-15T23:36:34.202Z,97955.97
2022-10-15T23:39:03.074Z,97946.16
2022-10-15T23:41:30.137Z,97950.06
2022-10-15T23:43:56.893Z,97948.84
2022-10-15T23:46:24.360Z,97936.50
2022-10-15T23:48:51.340Z,97942.47
2022-10-15T23:51:23.593Z,97943.06
2022-10-15T23:53:51.256Z,97933.03
2022-10-15T23:56:18.601Z,97944.31
2022-10-15T23:58:54.538Z,97941.22
